Flight Track Log - Related Links

Times and Time Zones

All times are in EDT time to prevent confusion due to time zone crossing. See the AAL2345 flight status page for this flight to view local times or setup timezone preferences in your user account.

Time Position Orientation Groundspeed Altitude Reporting Facility
EDT Latitude Longitude Course Direction KTS MPH feet Rate Location/Type
Sat 07:53:00 PM 41.9667 -87.8667 194° South 173 199 2,300  Level Chicago TRACON
Sat 07:54:00 PM 41.7973 -88.1250 201° Southwest  Level Estimated
Sat 07:54:00 PM 41.9167 -87.8667 180° South 236 272 4,500  Level Chicago TRACON
Sat 07:55:00 PM 41.6759 -88.0993 171° South  Level FlightAware Approximate
Sat 07:55:00 PM 41.8333 -87.8667 180° South 263 303 5,000  Level Chicago TRACON
Sat 07:56:00 PM 41.5842 -88.2089 197° South  Level Estimated
Sat 07:56:29 PM 41.7583 -87.9419 217° Southwest 277 319 8,800  Level Chicago Center
Sat 07:57:00 PM 41.4925 -88.3181 194° South  Level Estimated
Sat 07:57:30 PM 41.6828 -87.9869 204° Southwest 301 346 11,300  Level Chicago Center
Sat 07:58:00 PM 41.4006 -88.4270 194° South  Level Estimated
Sat 07:58:32 PM 41.5967 -88.0467 207° Southwest 357 411 13,300  Level Chicago Center
Sat 07:59:34 PM 41.4872 -88.1233 208° Southwest 380 437 16,400 2,732 Climbing Chicago Center
Sat 08:00:35 PM 41.3931 -88.1858 206° Southwest 394 453 18,900 2,195 Climbing Chicago Center
Sat 08:01:37 PM 41.2908 -88.2311 198° South 395 455 20,900 1,935 Climbing Chicago Center
Sat 08:02:39 PM 41.1594 -88.2911 199° South 415 478 22,900 1,839 Climbing Chicago Center
Sat 08:03:41 PM 41.0453 -88.3422 199° South 432 497 24,700 1,610 Climbing Chicago Center
Sat 08:04:42 PM 40.9283 -88.3939 198° South 442 509 26,200 1,366 Climbing Chicago Center
Sat 08:05:44 PM 40.8156 -88.4742 208° Southwest 473 544 27,500 1,355 Climbing Chicago Center
Sat 08:06:46 PM 40.7183 -88.5992 224° Southwest 486 559 29,000 1,463 Climbing Chicago Center
Sat 08:07:47 PM 40.6147 -88.7139 220° Southwest 489 563 30,500 1,317 Climbing Chicago Center
Sat 08:08:49 PM 40.4886 -88.8531 220° Southwest 496 571 31,700 726 Climbing Chicago Center
Sat 08:09:51 PM 40.3911 -88.9583 219° Southwest 509 586 32,000 145 Climbing Chicago Center
Sat 08:10:53 PM 40.2819 -89.0797 220° Southwest 513 590 32,000  Level Chicago Center
Sat 08:11:55 PM 40.1733 -89.1997 220° Southwest 511 588 32,000  Level Chicago Center
Sat 08:12:37 PM 40.0833 -89.2978 220° Southwest 512 589 32,000  Level Kansas City Center
Sat 08:13:38 PM 39.9731 -89.4169 220° Southwest 513 590 32,000  Level Kansas City Center
Sat 08:14:40 PM 39.8631 -89.5381 220° Southwest 514 592 32,000  Level Kansas City Center
Sat 08:15:41 PM 39.7511 -89.6600 220° Southwest 519 597 32,000  Level Kansas City Center
Sat 08:16:42 PM 39.6406 -89.7814 220° Southwest 520 598 32,000  Level Kansas City Center
Sat 08:17:44 PM 39.5286 -89.9028 220° Southwest 522 601 32,000  Level Kansas City Center
Sat 08:18:45 PM 39.3911 -90.0472 219° Southwest 529 609 32,000  Level Kansas City Center
Sat 08:19:46 PM 39.2778 -90.1694 220° Southwest 531 611 32,000  Level Kansas City Center
Sat 08:21:00 PM 39.1425 -90.3133 220° Southwest 529 609 32,000  Level Kansas City Center
Sat 08:22:01 PM 39.0308 -90.4331 220° Southwest 527 606 32,000 197 Level Kansas City Center
Sat 08:23:02 PM 38.9039 -90.5664 219° Southwest 523 602 32,400 780 Climbing Kansas City Center
Sat 08:24:04 PM 38.7875 -90.6869 219° Southwest 528 608 33,600 780 Climbing Kansas City Center
Sat 08:25:05 PM 38.6933 -90.7839 219° Southwest 523 602 34,000 197 Climbing Kansas City Center
Sat 08:26:06 PM 38.5586 -90.9256 219° Southwest 526 605 34,000  Level Kansas City Center
Sat 08:27:08 PM 38.4458 -91.0414 219° Southwest 527 606 34,000  Level Kansas City Center
Sat 08:28:09 PM 38.3319 -91.1578 219° Southwest 526 605 34,000  Level Kansas City Center
Sat 08:29:10 PM 38.2183 -91.2739 219° Southwest 526 605 34,000  Level Kansas City Center
Sat 08:30:11 PM 38.1017 -91.3914 218° Southwest 523 602 34,000  Level Kansas City Center
Sat 08:31:13 PM 37.9853 -91.5108 219° Southwest 532 612 34,000  Level Kansas City Center
Sat 08:32:14 PM 37.8689 -91.6272 218° Southwest 530 610 34,000  Level Kansas City Center
Sat 08:33:15 PM 37.7533 -91.7453 219° Southwest 529 609 34,000  Level Kansas City Center
Sat 08:34:17 PM 37.6369 -91.8614 218° Southwest 528 608 34,000  Level Kansas City Center
Sat 08:35:18 PM 37.5217 -91.9781 219° Southwest 527 606 34,000  Level Kansas City Center
Sat 08:36:19 PM 37.4117 -92.0992 221° Southwest 522 601 34,000  Level Kansas City Center
Sat 08:37:20 PM 37.3036 -92.2183 221° Southwest 518 596 34,000  Level Kansas City Center
Sat 08:38:22 PM 37.1731 -92.3619 221° Southwest 516 594 34,000  Level Kansas City Center
Sat 08:39:23 PM 37.0661 -92.4797 221° Southwest 512 589 34,000  Level Kansas City Center
Sat 08:40:24 PM 36.9594 -92.5958 221° Southwest 507 583 34,000  Level Kansas City Center
Sat 08:41:25 PM 36.8528 -92.7108 221° Southwest 506 582 34,000  Level Kansas City Center
Sat 08:42:27 PM 36.7481 -92.8269 222° Southwest 503 579 34,000  Level Kansas City Center
Sat 08:43:28 PM 36.6414 -92.9392 220° Southwest 502 578 34,000  Level Kansas City Center
Sat 08:44:29 PM 36.5442 -93.0444 221° Southwest 500 575 34,000  Level Kansas City Center
Sat 08:45:30 PM 36.4400 -93.1567 221° Southwest 498 573 34,000  Level Kansas City Center
Sat 08:46:32 PM 36.3364 -93.2689 221° Southwest 498 573 34,000  Level Kansas City Center
Sat 08:47:02 PM 36.2708 -93.3431 222° Southwest 503 579 34,000  Level Memphis Center
Sat 08:48:02 PM 36.1703 -93.4500 221° Southwest 498 573 34,000  Level Memphis Center
Sat 08:49:02 PM 36.0656 -93.5589 220° Southwest 498 573 34,000  Level Memphis Center
Sat 08:50:02 PM 35.9603 -93.6703 221° Southwest 498 573 34,000  Level Memphis Center
Sat 08:51:02 PM 35.8594 -93.7789 221° Southwest 498 573 34,000  Level Memphis Center
Sat 08:52:02 PM 35.7564 -93.8872 220° Southwest 498 573 34,000  Level Memphis Center
Sat 08:53:02 PM 35.6511 -93.9953 220° Southwest 493 567 34,000  Level Memphis Center
Sat 08:54:02 PM 35.5500 -94.1006 220° Southwest 493 567 34,000  Level Memphis Center
Sat 08:55:02 PM 35.4486 -94.2106 221° Southwest 488 562 34,000  Level Memphis Center
Sat 08:56:02 PM 35.3450 -94.3153 220° Southwest 488 562 34,000  Level Memphis Center
Sat 08:57:02 PM 35.2456 -94.4250 222° Southwest 488 562 34,000  Level Memphis Center
Sat 08:59:03 PM 35.0381 -94.6547 222° Southwest 478 550 34,000  Level Fort Worth Center
Sat 09:00:03 PM 34.9381 -94.7592 221° Southwest 478 550 34,000  Level Fort Worth Center
Sat 09:01:03 PM 34.8464 -94.8608 222° Southwest 490 564 34,000  Level Fort Worth Center
Sat 09:02:03 PM 34.7464 -94.9672 221° Southwest 490 564 34,000  Level Fort Worth Center
Sat 09:03:03 PM 34.6461 -95.0761 222° Southwest 484 557 34,000  Level Fort Worth Center
Sat 09:04:03 PM 34.5458 -95.1797 220° Southwest 479 551 34,000  Level Fort Worth Center
Sat 09:05:03 PM 34.4433 -95.2908 222° Southwest 486 559 34,000  Level Fort Worth Center
Sat 09:06:03 PM 34.3408 -95.3989 221° Southwest 492 566 34,000  Level Fort Worth Center
Sat 09:07:03 PM 34.2342 -95.5094 221° Southwest 492 566 34,000 -750 Level Fort Worth Center
Sat 09:08:03 PM 34.1211 -95.6272 221° Southwest 492 566 32,500 -2,250 Descending Fort Worth Center
Sat 09:09:03 PM 34.0244 -95.7319 222° Southwest 487 560 29,500 -2,950 Descending Fort Worth Center
Sat 09:10:03 PM 33.9236 -95.8364 221° Southwest 481 554 26,600 -2,900 Descending Fort Worth Center
Sat 09:11:03 PM 33.8286 -95.9358 221° Southwest 475 547 23,700 -2,800 Descending Fort Worth Center
Sat 09:12:03 PM 33.7461 -96.0169 219° Southwest 452 520 21,000 -2,850 Descending Fort Worth Center
Sat 09:13:03 PM 33.6511 -96.1158 221° Southwest 433 498 18,000 -2,650 Descending Fort Worth Center
Sat 09:14:03 PM 33.5789 -96.1917 221° Southwest 401 461 15,700 -2,350 Descending Fort Worth Center
Sat 09:15:03 PM 33.4964 -96.2850 223° Southwest 379 436 13,300 -2,250 Descending Fort Worth Center
Sat 09:16:03 PM 33.4344 -96.3581 225° Southwest 367 422 11,200 -1,450 Descending Fort Worth Center
Sat 09:17:03 PM 33.3619 -96.4436 225° Southwest 346 398 10,400 -1,000 Descending Fort Worth Center
Sat 09:18:03 PM 33.3164 -96.5111 231° Southwest 317 365 9,200 -1,450 Descending Fort Worth Center
Sat 09:19:03 PM 33.2900 -96.6033 251° West 299 344 7,500 -1,600 Descending Fort Worth Center
Sat 09:20:03 PM 33.2572 -96.6981 248° West 293 337 6,000 -1,150 Descending Fort Worth Center
Sat 09:21:03 PM 33.2283 -96.7875 249° West 293 337 5,200 -450 Descending Fort Worth Center
Sat 09:22:03 PM 33.1997 -96.8672 247° West 278 320 5,100 -200 Descending Fort Worth Center
Sat 09:23:03 PM 33.1706 -96.9394 244° Southwest 255 293 4,800 -700 Descending Fort Worth Center
Sat 09:24:03 PM 33.1311 -96.9917 228° Southwest 244 281 3,700 -1,100 Descending Fort Worth Center

Login

Don't have an account? Register now (free) for customized features, flight alerts, and more!